sensor_id;sensor_type;location;lat;lon;timestamp;pressure;altitude;pressure_sealevel;temperature;humidity
71638;BME280;59485;43.542;-5.676;2023-06-10T00:02:08;101083.38;;;19.48;100.00
71638;BME280;59485;43.542;-5.676;2023-06-10T00:04:34;101083.38;;;19.48;100.00
71638;BME280;59485;43.542;-5.676;2023-06-10T00:07:02;101097.16;;;19.55;100.00
71638;BME280;59485;43.542;-5.676;2023-06-10T00:09:29;101094.00;;;19.51;100.00
71638;BME280;59485;43.542;-5.676;2023-06-10T00:11:54;101077.16;;;19.46;100.00
71638;BME280;59485;43.542;-5.676;2023-06-10T00:14:20;101086.38;;;19.46;100.00
71638;BME280;59485;43.542;-5.676;2023-06-10T00:16:45;101077.31;;;19.39;100.00
71638;BME280;59485;43.542;-5.676;2023-06-10T00:19:11;101091.72;;;19.48;100.00
71638;BME280;59485;43.542;-5.676;2023-06-10T00:21:39;101092.78;;;19.47;100.00
71638;BME280;59485;43.542;-5.676;2023-06-10T00:24:09;101078.25;;;19.45;100.00
71638;BME280;59485;43.542;-5.676;2023-06-10T00:26:38;101089.28;;;19.52;100.00
71638;BME280;59485;43.542;-5.676;2023-06-10T00:29:04;101086.50;;;19.52;100.00
71638;BME280;59485;43.542;-5.676;2023-06-10T00:31:30;101069.31;;;19.43;100.00
71638;BME280;59485;43.542;-5.676;2023-06-10T00:33:56;101042.59;;;19.30;100.00
71638;BME280;59485;43.542;-5.676;2023-06-10T00:36:22;101073.53;;;19.45;100.00
71638;BME280;59485;43.542;-5.676;2023-06-10T00:38:47;101062.91;;;19.42;100.00
71638;BME280;59485;43.542;-5.676;2023-06-10T00:41:13;101086.88;;;19.55;100.00
71638;BME280;59485;43.542;-5.676;2023-06-10T00:43:39;101065.59;;;19.49;100.00
71638;BME280;59485;43.542;-5.676;2023-06-10T00:46:05;101081.94;;;19.57;100.00
71638;BME280;59485;43.542;-5.676;2023-06-10T00:48:30;101071.75;;;19.51;100.00
71638;BME280;59485;43.542;-5.676;2023-06-10T00:50:57;101078.06;;;19.58;100.00
71638;BME280;59485;43.542;-5.676;2023-06-10T00:53:23;101082.78;;;19.58;100.00
71638;BME280;59485;43.542;-5.676;2023-06-10T00:55:50;101067.41;;;19.55;100.00
71638;BME280;59485;43.542;-5.676;2023-06-10T00:58:15;101076.13;;;19.59;100.00
71638;BME280;59485;43.542;-5.676;2023-06-10T01:00:41;101075.00;;;19.60;100.00
71638;BME280;59485;43.542;-5.676;2023-06-10T01:03:07;101063.31;;;19.58;100.00
71638;BME280;59485;43.542;-5.676;2023-06-10T01:05:36;101063.06;;;19.59;100.00
71638;BME280;59485;43.542;-5.676;2023-06-10T01:10:50;101064.03;;;19.53;100.00
71638;BME280;59485;43.542;-5.676;2023-06-10T01:13:17;101066.56;;;19.55;100.00
71638;BME280;59485;43.542;-5.676;2023-06-10T01:15:44;101045.50;;;19.47;100.00
71638;BME280;59485;43.542;-5.676;2023-06-10T01:18:10;101053.84;;;19.47;100.00
71638;BME280;59485;43.542;-5.676;2023-06-10T01:20:41;101052.78;;;19.48;100.00
71638;BME280;59485;43.542;-5.676;2023-06-10T01:23:09;101049.38;;;19.46;100.00
71638;BME280;59485;43.542;-5.676;2023-06-10T01:25:47;101050.63;;;19.50;100.00
71638;BME280;59485;43.542;-5.676;2023-06-10T01:34:00;101058.78;;;19.45;100.00
71638;BME280;59485;43.542;-5.676;2023-06-10T01:36:28;101060.50;;;19.46;100.00
71638;BME280;59485;43.542;-5.676;2023-06-10T01:38:55;101064.59;;;19.43;100.00
71638;BME280;59485;43.542;-5.676;2023-06-10T01:41:22;101070.75;;;19.45;100.00
71638;BME280;59485;43.542;-5.676;2023-06-10T01:43:48;101056.50;;;19.42;100.00
71638;BME280;59485;43.542;-5.676;2023-06-10T01:46:15;101061.81;;;19.43;100.00
71638;BME280;59485;43.542;-5.676;2023-06-10T01:48:44;101050.59;;;19.38;100.00
71638;BME280;59485;43.542;-5.676;2023-06-10T01:51:10;101062.56;;;19.39;100.00
71638;BME280;59485;43.542;-5.676;2023-06-10T01:53:35;101073.53;;;19.45;100.00
71638;BME280;59485;43.542;-5.676;2023-06-10T01:56:01;101053.38;;;19.38;100.00
71638;BME280;59485;43.542;-5.676;2023-06-10T01:58:29;101056.75;;;19.40;100.00
71638;BME280;59485;43.542;-5.676;2023-06-10T02:00:55;101061.56;;;19.45;100.00
71638;BME280;59485;43.542;-5.676;2023-06-10T02:03:21;101060.84;;;19.38;100.00
71638;BME280;59485;43.542;-5.676;2023-06-10T02:05:46;101056.28;;;19.32;100.00
71638;BME280;59485;43.542;-5.676;2023-06-10T02:08:12;101053.00;;;19.35;100.00
71638;BME280;59485;43.542;-5.676;2023-06-10T02:10:37;101061.94;;;19.37;100.00
71638;BME280;59485;43.542;-5.676;2023-06-10T02:13:03;101073.69;;;19.39;100.00
71638;BME280;59485;43.542;-5.676;2023-06-10T02:15:28;101064.72;;;19.37;100.00
71638;BME280;59485;43.542;-5.676;2023-06-10T02:17:54;101057.94;;;19.33;100.00
71638;BME280;59485;43.542;-5.676;2023-06-10T02:20:21;101056.97;;;19.27;100.00
71638;BME280;59485;43.542;-5.676;2023-06-10T02:22:46;101062.69;;;19.32;100.00
71638;BME280;59485;43.542;-5.676;2023-06-10T02:25:12;101062.41;;;19.34;100.00
71638;BME280;59485;43.542;-5.676;2023-06-10T02:27:38;101057.34;;;19.31;100.00
71638;BME280;59485;43.542;-5.676;2023-06-10T02:30:04;101060.00;;;19.26;100.00
71638;BME280;59485;43.542;-5.676;2023-06-10T02:32:29;101062.66;;;19.21;100.00
71638;BME280;59485;43.542;-5.676;2023-06-10T02:34:55;101067.84;;;19.17;100.00
71638;BME280;59485;43.542;-5.676;2023-06-10T02:37:20;101065.19;;;19.10;100.00
71638;BME280;59485;43.542;-5.676;2023-06-10T02:39:46;101072.19;;;19.13;100.00
71638;BME280;59485;43.542;-5.676;2023-06-10T02:42:11;101086.69;;;19.15;100.00
71638;BME280;59485;43.542;-5.676;2023-06-10T02:44:38;101084.16;;;19.14;100.00
71638;BME280;59485;43.542;-5.676;2023-06-10T02:47:04;101085.94;;;19.08;100.00
71638;BME280;59485;43.542;-5.676;2023-06-10T02:49:29;101097.78;;;19.15;100.00
71638;BME280;59485;43.542;-5.676;2023-06-10T02:51:55;101082.94;;;19.09;100.00
71638;BME280;59485;43.542;-5.676;2023-06-10T02:54:22;101090.56;;;19.14;100.00
71638;BME280;59485;43.542;-5.676;2023-06-10T02:56:48;101096.22;;;19.07;100.00
71638;BME280;59485;43.542;-5.676;2023-06-10T02:59:14;101104.19;;;19.16;100.00
71638;BME280;59485;43.542;-5.676;2023-06-10T03:01:40;101103.63;;;19.14;100.00
71638;BME280;59485;43.542;-5.676;2023-06-10T03:04:06;101100.69;;;19.08;100.00
71638;BME280;59485;43.542;-5.676;2023-06-10T03:06:32;101107.47;;;19.13;100.00
71638;BME280;59485;43.542;-5.676;2023-06-10T03:09:02;101111.34;;;19.11;100.00
71638;BME280;59485;43.542;-5.676;2023-06-10T03:11:29;101114.81;;;19.07;100.00
71638;BME280;59485;43.542;-5.676;2023-06-10T03:13:56;101113.38;;;19.04;100.00
71638;BME280;59485;43.542;-5.676;2023-06-10T03:16:21;101119.53;;;19.06;100.00
71638;BME280;59485;43.542;-5.676;2023-06-10T03:18:48;101111.47;;;19.05;100.00
71638;BME280;59485;43.542;-5.676;2023-06-10T03:21:13;101121.22;;;19.07;100.00
71638;BME280;59485;43.542;-5.676;2023-06-10T03:23:39;101111.06;;;19.01;100.00
71638;BME280;59485;43.542;-5.676;2023-06-10T03:26:04;101111.47;;;19.05;100.00
71638;BME280;59485;43.542;-5.676;2023-06-10T03:28:31;101118.84;;;19.11;100.00
71638;BME280;59485;43.542;-5.676;2023-06-10T03:30:57;101128.63;;;19.14;100.00
71638;BME280;59485;43.542;-5.676;2023-06-10T03:33:22;101134.44;;;19.12;100.00
71638;BME280;59485;43.542;-5.676;2023-06-10T03:35:48;101136.97;;;19.14;100.00
71638;BME280;59485;43.542;-5.676;2023-06-10T03:38:13;101129.09;;;19.10;100.00
71638;BME280;59485;43.542;-5.676;2023-06-10T03:40:39;101132.50;;;19.13;100.00
71638;BME280;59485;43.542;-5.676;2023-06-10T03:43:05;101137.56;;;19.16;100.00
71638;BME280;59485;43.542;-5.676;2023-06-10T03:45:31;101123.78;;;19.09;100.00
71638;BME280;59485;43.542;-5.676;2023-06-10T03:47:57;101142.88;;;19.17;100.00
71638;BME280;59485;43.542;-5.676;2023-06-10T03:50:23;101148.09;;;19.25;100.00
71638;BME280;59485;43.542;-5.676;2023-06-10T03:52:49;101154.72;;;19.24;100.00
71638;BME280;59485;43.542;-5.676;2023-06-10T03:55:15;101141.56;;;19.20;100.00
71638;BME280;59485;43.542;-5.676;2023-06-10T03:57:42;101146.03;;;19.21;100.00
71638;BME280;59485;43.542;-5.676;2023-06-10T04:00:08;101154.28;;;19.27;100.00
71638;BME280;59485;43.542;-5.676;2023-06-10T04:02:37;101141.09;;;19.23;100.00
71638;BME280;59485;43.542;-5.676;2023-06-10T04:05:03;101159.22;;;19.25;100.00
71638;BME280;59485;43.542;-5.676;2023-06-10T04:07:29;101143.63;;;19.13;100.00
71638;BME280;59485;43.542;-5.676;2023-06-10T04:09:56;101154.63;;;19.19;100.00
71638;BME280;59485;43.542;-5.676;2023-06-10T04:12:21;101160.56;;;19.23;100.00
71638;BME280;59485;43.542;-5.676;2023-06-10T04:14:47;101127.28;;;19.04;100.00
71638;BME280;59485;43.542;-5.676;2023-06-10T04:17:12;101151.38;;;19.22;100.00
71638;BME280;59485;43.542;-5.676;2023-06-10T04:19:38;101149.28;;;19.18;100.00
71638;BME280;59485;43.542;-5.676;2023-06-10T04:22:03;101151.38;;;19.22;100.00
71638;BME280;59485;43.542;-5.676;2023-06-10T04:24:30;101155.00;;;19.23;100.00
71638;BME280;59485;43.542;-5.676;2023-06-10T04:26:56;101163.69;;;19.26;100.00
71638;BME280;59485;43.542;-5.676;2023-06-10T04:29:21;101169.03;;;19.28;100.00
71638;BME280;59485;43.542;-5.676;2023-06-10T04:31:47;101175.66;;;19.27;100.00
71638;BME280;59485;43.542;-5.676;2023-06-10T04:34:12;101165.34;;;19.16;100.00
71638;BME280;59485;43.542;-5.676;2023-06-10T04:36:38;101164.75;;;19.14;100.00
71638;BME280;59485;43.542;-5.676;2023-06-10T04:39:04;101158.81;;;19.10;100.00
71638;BME280;59485;43.542;-5.676;2023-06-10T04:41:32;101171.53;;;19.18;100.00
71638;BME280;59485;43.542;-5.676;2023-06-10T04:43:58;101174.53;;;19.16;100.00
71638;BME280;59485;43.542;-5.676;2023-06-10T04:46:23;101180.94;;;19.17;100.00
71638;BME280;59485;43.542;-5.676;2023-06-10T04:48:49;101185.91;;;19.15;100.00
71638;BME280;59485;43.542;-5.676;2023-06-10T04:51:15;101182.28;;;19.14;100.00
71638;BME280;59485;43.542;-5.676;2023-06-10T04:53:41;101178.66;;;19.14;100.00
71638;BME280;59485;43.542;-5.676;2023-06-10T04:56:07;101177.69;;;19.20;100.00
71638;BME280;59485;43.542;-5.676;2023-06-10T04:58:33;101189.31;;;19.28;100.00
71638;BME280;59485;43.542;-5.676;2023-06-10T05:00:58;101185.56;;;19.23;100.00
71638;BME280;59485;43.542;-5.676;2023-06-10T05:03:26;101185.69;;;19.28;100.00
71638;BME280;59485;43.542;-5.676;2023-06-10T05:05:51;101191.03;;;19.29;100.00
71638;BME280;59485;43.542;-5.676;2023-06-10T05:08:17;101204.59;;;19.37;100.00
71638;BME280;59485;43.542;-5.676;2023-06-10T05:10:43;101201.41;;;19.34;100.00
71638;BME280;59485;43.542;-5.676;2023-06-10T05:13:09;101204.19;;;19.34;100.00
71638;BME280;59485;43.542;-5.676;2023-06-10T05:15:34;101201.69;;;19.32;100.00
71638;BME280;59485;43.542;-5.676;2023-06-10T05:18:00;101203.50;;;19.38;100.00
71638;BME280;59485;43.542;-5.676;2023-06-10T05:20:27;101200.25;;;19.41;100.00
71638;BME280;59485;43.542;-5.676;2023-06-10T05:22:54;101200.84;;;19.43;100.00
71638;BME280;59485;43.542;-5.676;2023-06-10T05:25:19;101218.56;;;19.49;100.00
71638;BME280;59485;43.542;-5.676;2023-06-10T05:27:45;101214.28;;;19.46;100.00
71638;BME280;59485;43.542;-5.676;2023-06-10T05:30:10;101219.13;;;19.51;100.00
71638;BME280;59485;43.542;-5.676;2023-06-10T05:32:36;101219.00;;;19.46;100.00
71638;BME280;59485;43.542;-5.676;2023-06-10T05:35:02;101206.41;;;19.43;100.00
71638;BME280;59485;43.542;-5.676;2023-06-10T05:37:29;101207.44;;;19.49;100.00
71638;BME280;59485;43.542;-5.676;2023-06-10T05:39:54;101187.16;;;19.42;100.00
71638;BME280;59485;43.542;-5.676;2023-06-10T05:42:20;101202.13;;;19.59;100.00
71638;BME280;59485;43.542;-5.676;2023-06-10T05:44:45;101192.56;;;19.55;100.00
71638;BME280;59485;43.542;-5.676;2023-06-10T05:47:11;101182.00;;;19.45;100.00
71638;BME280;59485;43.542;-5.676;2023-06-10T05:49:36;101205.88;;;19.65;100.00
71638;BME280;59485;43.542;-5.676;2023-06-10T05:52:02;101214.22;;;19.65;100.00
71638;BME280;59485;43.542;-5.676;2023-06-10T05:54:27;101212.28;;;19.65;100.00
71638;BME280;59485;43.542;-5.676;2023-06-10T05:56:53;101200.91;;;19.55;100.00
71638;BME280;59485;43.542;-5.676;2023-06-10T05:59:19;101212.03;;;19.55;100.00
71638;BME280;59485;43.542;-5.676;2023-06-10T06:01:44;101218.31;;;19.62;100.00
71638;BME280;59485;43.542;-5.676;2023-06-10T06:04:10;101196.31;;;19.49;100.00
71638;BME280;59485;43.542;-5.676;2023-06-10T06:06:38;101218.47;;;19.67;100.00
71638;BME280;59485;43.542;-5.676;2023-06-10T06:09:04;101216.78;;;19.66;100.00
71638;BME280;59485;43.542;-5.676;2023-06-10T06:11:30;101221.59;;;19.71;100.00
71638;BME280;59485;43.542;-5.676;2023-06-10T06:13:56;101209.63;;;19.70;100.00
71638;BME280;59485;43.542;-5.676;2023-06-10T06:16:25;101220.41;;;19.78;100.00
71638;BME280;59485;43.542;-5.676;2023-06-10T06:18:51;101204.91;;;19.71;100.00
71638;BME280;59485;43.542;-5.676;2023-06-10T06:21:16;101179.38;;;19.62;100.00
71638;BME280;59485;43.542;-5.676;2023-06-10T06:23:44;101199.50;;;19.76;100.00
71638;BME280;59485;43.542;-5.676;2023-06-10T06:26:09;101207.59;;;19.89;100.00
71638;BME280;59485;43.542;-5.676;2023-06-10T06:28:35;101196.34;;;19.84;100.00
71638;BME280;59485;43.542;-5.676;2023-06-10T06:31:00;101202.16;;;19.82;100.00
71638;BME280;59485;43.542;-5.676;2023-06-10T06:33:26;101213.41;;;19.99;100.00
71638;BME280;59485;43.542;-5.676;2023-06-10T06:35:52;101215.09;;;20.00;100.00
71638;BME280;59485;43.542;-5.676;2023-06-10T06:38:17;101203.00;;;19.95;100.00
71638;BME280;59485;43.542;-5.676;2023-06-10T06:40:44;101219.44;;;20.08;100.00
71638;BME280;59485;43.542;-5.676;2023-06-10T06:43:10;101215.81;;;20.07;100.00
71638;BME280;59485;43.542;-5.676;2023-06-10T06:45:35;101207.72;;;20.06;100.00
71638;BME280;59485;43.542;-5.676;2023-06-10T06:48:01;101210.13;;;20.14;100.00
71638;BME280;59485;43.542;-5.676;2023-06-10T06:50:27;101217.53;;;20.20;100.00
71638;BME280;59485;43.542;-5.676;2023-06-10T06:52:53;101204.81;;;20.12;100.00
71638;BME280;59485;43.542;-5.676;2023-06-10T06:55:18;101211.34;;;20.18;100.00
71638;BME280;59485;43.542;-5.676;2023-06-10T06:57:44;101227.31;;;20.22;100.00
71638;BME280;59485;43.542;-5.676;2023-06-10T07:00:10;101229.41;;;20.39;100.00
71638;BME280;59485;43.542;-5.676;2023-06-10T07:02:36;101233.50;;;20.48;100.00
71638;BME280;59485;43.542;-5.676;2023-06-10T07:05:01;101218.59;;;20.42;100.00
71638;BME280;59485;43.542;-5.676;2023-06-10T07:07:27;101214.72;;;20.43;100.00
71638;BME280;59485;43.542;-5.676;2023-06-10T07:09:52;101202.41;;;20.39;100.00
71638;BME280;59485;43.542;-5.676;2023-06-10T07:12:18;101216.28;;;20.51;100.00
71638;BME280;59485;43.542;-5.676;2023-06-10T07:14:44;101223.88;;;20.67;100.00
71638;BME280;59485;43.542;-5.676;2023-06-10T07:17:10;101228.72;;;20.72;100.00
71638;BME280;59485;43.542;-5.676;2023-06-10T07:19:35;101217.72;;;20.65;100.00
71638;BME280;59485;43.542;-5.676;2023-06-10T07:22:01;101202.56;;;20.73;100.00
71638;BME280;59485;43.542;-5.676;2023-06-10T07:24:26;101206.03;;;20.80;100.00
71638;BME280;59485;43.542;-5.676;2023-06-10T07:26:52;101232.41;;;21.01;100.00
71638;BME280;59485;43.542;-5.676;2023-06-10T07:29:17;101231.09;;;20.91;100.00
71638;BME280;59485;43.542;-5.676;2023-06-10T07:31:43;101237.84;;;20.95;100.00
71638;BME280;59485;43.542;-5.676;2023-06-10T07:34:08;101228.34;;;20.80;100.00
71638;BME280;59485;43.542;-5.676;2023-06-10T07:36:34;101228.81;;;20.77;100.00
71638;BME280;59485;43.542;-5.676;2023-06-10T07:38:59;101229.78;;;20.82;100.00
71638;BME280;59485;43.542;-5.676;2023-06-10T07:41:25;101234.56;;;20.98;100.00
71638;BME280;59485;43.542;-5.676;2023-06-10T07:43:52;101240.00;;;21.05;100.00
71638;BME280;59485;43.542;-5.676;2023-06-10T07:46:21;101236.88;;;21.02;100.00
71638;BME280;59485;43.542;-5.676;2023-06-10T07:48:47;101236.34;;;21.05;100.00
71638;BME280;59485;43.542;-5.676;2023-06-10T07:51:12;101239.59;;;21.13;100.00
71638;BME280;59485;43.542;-5.676;2023-06-10T07:53:38;101249.28;;;21.22;100.00
71638;BME280;59485;43.542;-5.676;2023-06-10T07:56:04;101249.03;;;21.24;100.00
71638;BME280;59485;43.542;-5.676;2023-06-10T07:58:29;101236.97;;;21.18;100.00
71638;BME280;59485;43.542;-5.676;2023-06-10T08:00:55;101240.06;;;21.22;100.00
71638;BME280;59485;43.542;-5.676;2023-06-10T08:03:20;101237.66;;;21.25;100.00
71638;BME280;59485;43.542;-5.676;2023-06-10T08:05:46;101239.59;;;21.25;100.00
71638;BME280;59485;43.542;-5.676;2023-06-10T08:08:13;101249.75;;;21.48;100.00
71638;BME280;59485;43.542;-5.676;2023-06-10T08:10:38;101234.53;;;21.39;100.00
71638;BME280;59485;43.542;-5.676;2023-06-10T08:13:04;101243.63;;;21.46;100.00
71638;BME280;59485;43.542;-5.676;2023-06-10T08:15:30;101248.66;;;21.49;100.00
71638;BME280;59485;43.542;-5.676;2023-06-10T08:17:55;101253.50;;;21.53;100.00
71638;BME280;59485;43.542;-5.676;2023-06-10T08:20:22;101258.31;;;21.58;100.00
71638;BME280;59485;43.542;-5.676;2023-06-10T08:22:47;101248.44;;;21.50;100.00
71638;BME280;59485;43.542;-5.676;2023-06-10T08:25:13;101258.69;;;21.61;100.00
71638;BME280;59485;43.542;-5.676;2023-06-10T08:27:38;101260.13;;;21.64;100.00
71638;BME280;59485;43.542;-5.676;2023-06-10T08:30:05;101241.81;;;21.56;100.00
71638;BME280;59485;43.542;-5.676;2023-06-10T08:32:30;101254.38;;;21.70;100.00
71638;BME280;59485;43.542;-5.676;2023-06-10T08:34:56;101244.66;;;21.73;100.00
71638;BME280;59485;43.542;-5.676;2023-06-10T08:37:21;101254.56;;;21.81;100.00
71638;BME280;59485;43.542;-5.676;2023-06-10T08:39:47;101256.31;;;21.87;100.00
71638;BME280;59485;43.542;-5.676;2023-06-10T08:44:55;101269.63;;;21.96;100.00
71638;BME280;59485;43.542;-5.676;2023-06-10T08:47:23;101262.59;;;21.94;100.00
71638;BME280;59485;43.542;-5.676;2023-06-10T08:49:49;101267.53;;;22.03;100.00
71638;BME280;59485;43.542;-5.676;2023-06-10T08:52:16;101263.38;;;22.06;100.00
71638;BME280;59485;43.542;-5.676;2023-06-10T08:55:00;101256.88;;;22.00;100.00
71638;BME280;59485;43.542;-5.676;2023-06-10T08:57:29;101248.75;;;21.99;100.00
71638;BME280;59485;43.542;-5.676;2023-06-10T08:59:57;101255.50;;;22.03;100.00
71638;BME280;59485;43.542;-5.676;2023-06-10T09:02:23;101265.06;;;22.07;100.00
71638;BME280;59485;43.542;-5.676;2023-06-10T09:04:52;101266.81;;;21.96;100.00
71638;BME280;59485;43.542;-5.676;2023-06-10T09:07:17;101271.41;;;22.02;100.00
71638;BME280;59485;43.542;-5.676;2023-06-10T09:09:44;101277.09;;;22.07;100.00
71638;BME280;59485;43.542;-5.676;2023-06-10T09:12:11;101277.69;;;22.10;100.00
71638;BME280;59485;43.542;-5.676;2023-06-10T09:14:37;101279.28;;;22.05;100.00
71638;BME280;59485;43.542;-5.676;2023-06-10T09:17:03;101280.19;;;21.94;100.00
71638;BME280;59485;43.542;-5.676;2023-06-10T09:19:30;101245.75;;;21.89;100.00
71638;BME280;59485;43.542;-5.676;2023-06-10T09:21:55;101258.94;;;21.93;100.00
71638;BME280;59485;43.542;-5.676;2023-06-10T09:24:25;101259.06;;;21.98;100.00
71638;BME280;59485;43.542;-5.676;2023-06-10T09:27:02;101265.41;;;22.11;100.00
71638;BME280;59485;43.542;-5.676;2023-06-10T09:29:27;101261.44;;;22.06;100.00
71638;BME280;59485;43.542;-5.676;2023-06-10T09:31:53;101263.63;;;22.04;100.00
71638;BME280;59485;43.542;-5.676;2023-06-10T09:34:18;101263.72;;;22.10;100.00
71638;BME280;59485;43.542;-5.676;2023-06-10T09:36:45;101258.66;;;22.06;100.00
71638;BME280;59485;43.542;-5.676;2023-06-10T09:39:18;101264.22;;;22.23;100.00
71638;BME280;59485;43.542;-5.676;2023-06-10T09:41:45;101259.41;;;22.19;100.00
71638;BME280;59485;43.542;-5.676;2023-06-10T09:44:16;101267.00;;;22.23;100.00
71638;BME280;59485;43.542;-5.676;2023-06-10T09:46:47;101272.16;;;22.31;100.00
71638;BME280;59485;43.542;-5.676;2023-06-10T09:49:13;101271.97;;;22.38;100.00
71638;BME280;59485;43.542;-5.676;2023-06-10T09:51:49;101263.88;;;22.36;100.00
71638;BME280;59485;43.542;-5.676;2023-06-10T09:54:16;101283.75;;;22.40;100.00
71638;BME280;59485;43.542;-5.676;2023-06-10T09:56:41;101269.56;;;22.25;100.00
71638;BME280;59485;43.542;-5.676;2023-06-10T09:59:08;101281.03;;;22.28;100.00
71638;BME280;59485;43.542;-5.676;2023-06-10T10:01:34;101292.63;;;22.37;100.00
71638;BME280;59485;43.542;-5.676;2023-06-10T10:04:00;101287.56;;;22.34;100.00
71638;BME280;59485;43.542;-5.676;2023-06-10T10:06:27;101308.38;;;22.43;100.00
71638;BME280;59485;43.542;-5.676;2023-06-10T10:08:54;101292.13;;;22.40;100.00
71638;BME280;59485;43.542;-5.676;2023-06-10T10:11:21;101303.97;;;22.47;100.00
71638;BME280;59485;43.542;-5.676;2023-06-10T10:13:51;101301.50;;;22.51;100.00
71638;BME280;59485;43.542;-5.676;2023-06-10T10:16:20;101303.66;;;22.43;100.00
71638;BME280;59485;43.542;-5.676;2023-06-10T10:19:07;101302.63;;;22.50;100.00
71638;BME280;59485;43.542;-5.676;2023-06-10T10:21:39;101309.97;;;22.56;100.00
71638;BME280;59485;43.542;-5.676;2023-06-10T10:24:20;101308.56;;;22.36;100.00
71638;BME280;59485;43.542;-5.676;2023-06-10T10:26:48;101310.09;;;22.44;100.00
71638;BME280;59485;43.542;-5.676;2023-06-10T10:29:20;101302.31;;;22.68;100.00
71638;BME280;59485;43.542;-5.676;2023-06-10T10:31:51;101302.75;;;22.76;100.00
71638;BME280;59485;43.542;-5.676;2023-06-10T10:34:25;101295.09;;;22.89;100.00
71638;BME280;59485;43.542;-5.676;2023-06-10T10:36:52;101288.66;;;22.88;100.00
71638;BME280;59485;43.542;-5.676;2023-06-10T10:39:18;101291.06;;;22.79;100.00
71638;BME280;59485;43.542;-5.676;2023-06-10T10:41:45;101283.66;;;22.90;100.00
71638;BME280;59485;43.542;-5.676;2023-06-10T10:44:12;101288.84;;;23.03;100.00
71638;BME280;59485;43.542;-5.676;2023-06-10T10:46:48;101286.44;;;23.12;100.00
71638;BME280;59485;43.542;-5.676;2023-06-10T10:49:15;101284.75;;;23.11;100.00
71638;BME280;59485;43.542;-5.676;2023-06-10T10:52:00;101289.63;;;23.20;100.00
71638;BME280;59485;43.542;-5.676;2023-06-10T10:54:34;101281.69;;;23.34;100.00
71638;BME280;59485;43.542;-5.676;2023-06-10T11:04:49;101291.41;;;23.53;100.00
71638;BME280;59485;43.542;-5.676;2023-06-10T11:07:15;101285.28;;;23.56;100.00
71638;BME280;59485;43.542;-5.676;2023-06-10T11:09:58;101294.38;;;23.69;100.00
71638;BME280;59485;43.542;-5.676;2023-06-10T11:12:25;101266.16;;;23.75;100.00
71638;BME280;59485;43.542;-5.676;2023-06-10T11:14:55;101271.75;;;23.75;100.00
71638;BME280;59485;43.542;-5.676;2023-06-10T11:17:23;101278.13;;;23.66;100.00
71638;BME280;59485;43.542;-5.676;2023-06-10T11:19:49;101272.72;;;23.59;100.00
71638;BME280;59485;43.542;-5.676;2023-06-10T11:22:17;101277.09;;;23.77;100.00
71638;BME280;59485;43.542;-5.676;2023-06-10T11:24:50;101270.91;;;23.75;100.00
71638;BME280;59485;43.542;-5.676;2023-06-10T11:27:23;101270.81;;;23.65;100.00
71638;BME280;59485;43.542;-5.676;2023-06-10T11:30:17;101274.69;;;23.59;100.00
71638;BME280;59485;43.542;-5.676;2023-06-10T11:32:44;101265.19;;;23.60;100.00
71638;BME280;59485;43.542;-5.676;2023-06-10T11:35:09;101276.16;;;23.66;100.00
71638;BME280;59485;43.542;-5.676;2023-06-10T11:37:36;101271.53;;;23.50;100.00
71638;BME280;59485;43.542;-5.676;2023-06-10T11:40:04;101263.72;;;23.52;100.00
71638;BME280;59485;43.542;-5.676;2023-06-10T11:42:31;101278.44;;;23.47;100.00
71638;BME280;59485;43.542;-5.676;2023-06-10T11:44:57;101284.16;;;23.52;100.00
71638;BME280;59485;43.542;-5.676;2023-06-10T11:47:23;101286.84;;;23.47;100.00
71638;BME280;59485;43.542;-5.676;2023-06-10T11:49:58;101280.56;;;23.35;100.00
71638;BME280;59485;43.542;-5.676;2023-06-10T11:52:30;101293.50;;;23.41;100.00
71638;BME280;59485;43.542;-5.676;2023-06-10T11:54:58;101297.81;;;23.49;100.00
71638;BME280;59485;43.542;-5.676;2023-06-10T11:57:24;101283.03;;;23.32;100.00
71638;BME280;59485;43.542;-5.676;2023-06-10T11:59:50;101288.69;;;23.37;100.00
71638;BME280;59485;43.542;-5.676;2023-06-10T12:02:16;101295.53;;;23.24;100.00
71638;BME280;59485;43.542;-5.676;2023-06-10T12:04:42;101286.59;;;23.27;100.00
71638;BME280;59485;43.542;-5.676;2023-06-10T12:07:08;101289.38;;;23.22;100.00
71638;BME280;59485;43.542;-5.676;2023-06-10T12:09:33;101284.19;;;23.36;100.00
71638;BME280;59485;43.542;-5.676;2023-06-10T12:11:59;101292.75;;;23.24;100.00
71638;BME280;59485;43.542;-5.676;2023-06-10T12:14:54;101285.88;;;23.37;100.00
71638;BME280;59485;43.542;-5.676;2023-06-10T12:19:57;101287.31;;;23.61;100.00
71638;BME280;59485;43.542;-5.676;2023-06-10T12:22:23;101288.94;;;23.57;100.00
71638;BME280;59485;43.542;-5.676;2023-06-10T12:25:01;101289.81;;;23.63;100.00
71638;BME280;59485;43.542;-5.676;2023-06-10T12:27:28;101286.16;;;23.89;100.00
71638;BME280;59485;43.542;-5.676;2023-06-10T12:29:55;101281.16;;;23.91;100.00
71638;BME280;59485;43.542;-5.676;2023-06-10T12:32:52;101273.50;;;24.13;100.00
71638;BME280;59485;43.542;-5.676;2023-06-10T12:35:22;101276.44;;;24.28;100.00
71638;BME280;59485;43.542;-5.676;2023-06-10T12:38:24;101291.97;;;24.41;100.00
71638;BME280;59485;43.542;-5.676;2023-06-10T12:40:50;101294.41;;;24.33;100.00
71638;BME280;59485;43.542;-5.676;2023-06-10T12:43:20;101285.94;;;24.22;100.00
71638;BME280;59485;43.542;-5.676;2023-06-10T12:45:46;101284.25;;;24.26;100.00
71638;BME280;59485;43.542;-5.676;2023-06-10T12:48:19;101299.31;;;24.15;100.00
71638;BME280;59485;43.542;-5.676;2023-06-10T12:50:50;101296.84;;;23.92;100.00
71638;BME280;59485;43.542;-5.676;2023-06-10T12:55:41;101275.59;;;23.96;100.00